createdAt,value
2023-02-16T00:00:46.384Z,9.57
2023-02-16T00:03:31.668Z,9.80
2023-02-16T00:06:17.903Z,10.33
2023-02-16T00:09:03.429Z,10.13
2023-02-16T00:12:07.805Z,9.87
2023-02-16T00:14:53.204Z,8.85
2023-02-16T00:17:38.681Z,9.73
2023-02-16T00:20:24.452Z,9.77
2023-02-16T00:23:09.761Z,9.67
2023-02-16T00:25:55.936Z,9.20
2023-02-16T00:28:41.242Z,9.80
2023-02-16T00:31:29.060Z,9.97
2023-02-16T00:34:36.094Z,9.60
2023-02-16T00:37:21.685Z,8.80
2023-02-16T00:40:08.125Z,8.87
2023-02-16T00:42:53.394Z,9.00
2023-02-16T00:45:38.933Z,9.30
2023-02-16T00:48:25.148Z,9.50
2023-02-16T00:51:23.985Z,9.57
2023-02-16T00:54:11.321Z,9.67
2023-02-16T00:56:57.312Z,8.33
2023-02-16T00:59:42.682Z,8.80
2023-02-16T01:02:29.083Z,8.23
2023-02-16T01:05:15.516Z,8.80
2023-02-16T01:08:20.310Z,7.80
2023-02-16T01:11:07.678Z,9.07
2023-02-16T01:13:54.748Z,8.37
2023-02-16T01:16:42.440Z,9.27
2023-02-16T01:19:27.819Z,9.20
2023-02-16T01:22:13.417Z,8.30
2023-02-16T01:24:58.691Z,8.63
2023-02-16T01:27:45.249Z,8.90
2023-02-16T01:30:30.570Z,8.30
2023-02-16T01:33:16.841Z,9.37
2023-02-16T01:36:02.168Z,8.80
2023-02-16T01:38:47.757Z,8.97
2023-02-16T01:41:51.485Z,7.93
2023-02-16T01:44:46.662Z,8.83
2023-02-16T01:47:58.515Z,7.83
2023-02-16T01:50:59.235Z,9.20
2023-02-16T01:54:11.146Z,8.73
2023-02-16T01:57:08.916Z,9.30
2023-02-16T01:59:54.473Z,8.47
2023-02-16T02:02:45.320Z,9.43
2023-02-16T02:05:37.824Z,7.73
2023-02-16T02:08:43.896Z,8.57
2023-02-16T02:11:48.553Z,8.43
2023-02-16T02:14:39.691Z,9.10
2023-02-16T02:17:25.320Z,8.00
2023-02-16T02:20:15.118Z,8.43
2023-02-16T02:23:32.412Z,8.23
2023-02-16T02:26:54.221Z,8.07
2023-02-16T02:29:52.033Z,9.27
2023-02-16T02:33:07.165Z,8.80
2023-02-16T02:36:27.419Z,8.95
2023-02-16T02:39:35.104Z,8.77
2023-02-16T02:42:32.927Z,8.63
2023-02-16T02:45:26.768Z,8.37
2023-02-16T02:48:11.959Z,8.33
2023-02-16T02:51:17.071Z,8.10
2023-02-16T02:54:35.918Z,8.30
2023-02-16T02:57:59.491Z,7.73
2023-02-16T03:00:47.350Z,7.23
2023-02-16T03:03:41.128Z,7.90
2023-02-16T03:06:38.687Z,7.50
2023-02-16T03:09:25.261Z,7.07
2023-02-16T03:12:31.243Z,6.97
2023-02-16T03:15:17.434Z,7.87
2023-02-16T03:18:23.836Z,7.30
2023-02-16T03:21:28.962Z,7.30
2023-02-16T03:24:39.972Z,7.23
2023-02-16T03:27:48.801Z,7.03
2023-02-16T03:30:34.672Z,7.47
2023-02-16T03:33:21.759Z,7.83
2023-02-16T03:36:08.222Z,7.20
2023-02-16T03:38:55.980Z,6.83
2023-02-16T03:41:50.186Z,7.00
2023-02-16T03:44:35.425Z,6.43
2023-02-16T03:47:21.157Z,7.30
2023-02-16T03:50:07.484Z,7.43
2023-02-16T03:52:53.633Z,7.23
2023-02-16T03:55:44.416Z,7.00
2023-02-16T03:58:29.833Z,7.20
2023-02-16T04:01:15.376Z,7.40
2023-02-16T04:04:00.908Z,7.73
2023-02-16T04:06:46.262Z,7.80
2023-02-16T04:09:31.797Z,7.47
2023-02-16T04:12:35.995Z,6.93
2023-02-16T04:15:24.045Z,7.07
2023-02-16T04:18:09.503Z,7.23
2023-02-16T04:20:54.903Z,8.07
2023-02-16T04:23:40.460Z,7.63
2023-02-16T04:26:25.892Z,7.80
2023-02-16T04:29:11.831Z,8.40
2023-02-16T04:31:57.744Z,8.07
2023-02-16T04:34:43.464Z,7.37
2023-02-16T04:37:28.907Z,7.00
2023-02-16T04:40:16.758Z,6.93
2023-02-16T04:43:02.127Z,7.87
2023-02-16T04:45:47.783Z,6.73
2023-02-16T04:48:33.063Z,7.63
2023-02-16T04:51:18.641Z,7.63
2023-02-16T04:54:04.229Z,8.13
2023-02-16T04:56:50.015Z,6.73
2023-02-16T04:59:35.348Z,6.13
2023-02-16T05:02:20.883Z,7.77
2023-02-16T05:05:06.822Z,7.57
2023-02-16T05:07:52.032Z,6.80
2023-02-16T05:10:37.585Z,6.87
2023-02-16T05:13:42.701Z,7.00
2023-02-16T05:16:27.901Z,6.97
2023-02-16T05:19:13.568Z,7.07
2023-02-16T05:21:59.207Z,6.50
2023-02-16T05:24:45.194Z,6.60
2023-02-16T05:27:31.477Z,6.07
2023-02-16T05:30:17.056Z,7.00
2023-02-16T05:33:02.379Z,7.03
2023-02-16T05:35:47.897Z,6.50
2023-02-16T05:38:33.419Z,6.73
2023-02-16T05:41:24.839Z,6.23
2023-02-16T05:44:10.525Z,6.53
2023-02-16T05:46:56.116Z,5.90
2023-02-16T05:49:41.666Z,6.43
2023-02-16T05:52:27.089Z,5.97
2023-02-16T05:55:12.609Z,7.30
2023-02-16T05:57:57.836Z,7.27
2023-02-16T06:00:43.543Z,6.07
2023-02-16T06:03:29.418Z,6.60
2023-02-16T06:06:14.820Z,6.37
2023-02-16T06:09:01.396Z,6.97
2023-02-16T06:11:47.083Z,6.60
2023-02-16T06:14:32.329Z,6.70
2023-02-16T06:17:17.861Z,6.70
2023-02-16T06:20:04.475Z,5.87
2023-02-16T06:22:49.794Z,6.67
2023-02-16T06:25:35.232Z,7.47
2023-02-16T06:28:20.693Z,7.70
2023-02-16T06:31:06.703Z,7.60
2023-02-16T06:33:52.994Z,6.40
2023-02-16T06:36:41.252Z,7.37
2023-02-16T06:39:28.155Z,7.47
2023-02-16T06:42:13.593Z,8.00
2023-02-16T06:44:59.118Z,6.60
2023-02-16T06:47:44.430Z,6.67
2023-02-16T06:50:29.915Z,6.23
2023-02-16T06:53:15.450Z,6.43
2023-02-16T06:56:00.988Z,6.10
2023-02-16T06:58:46.614Z,6.67
2023-02-16T07:01:32.105Z,6.50
2023-02-16T07:04:17.576Z,6.50
2023-02-16T07:07:03.392Z,6.07
2023-02-16T07:09:48.901Z,6.53
2023-02-16T07:12:34.412Z,7.00
2023-02-16T07:15:19.973Z,6.90
2023-02-16T07:18:06.091Z,6.60
2023-02-16T07:20:51.346Z,8.00
2023-02-16T07:23:36.976Z,7.70
2023-02-16T07:26:22.463Z,7.50
2023-02-16T07:29:09.079Z,7.50
2023-02-16T07:31:56.484Z,7.70
2023-02-16T07:34:41.939Z,7.47
2023-02-16T07:37:27.320Z,7.03
2023-02-16T07:40:13.431Z,7.10
2023-02-16T07:43:03.527Z,7.53
2023-02-16T07:45:49.256Z,7.97
2023-02-16T07:48:35.298Z,7.33
2023-02-16T07:51:22.733Z,6.40
2023-02-16T07:54:08.385Z,6.33
2023-02-16T07:56:53.632Z,6.00
2023-02-16T07:59:39.199Z,6.23
2023-02-16T08:02:24.935Z,6.23
2023-02-16T08:05:10.613Z,6.20
2023-02-16T08:07:56.123Z,6.03
2023-02-16T08:10:41.715Z,6.30
2023-02-16T08:13:26.961Z,6.13
2023-02-16T08:16:21.261Z,6.00
2023-02-16T08:19:06.758Z,6.15
2023-02-16T08:21:52.093Z,5.43
2023-02-16T08:24:37.485Z,5.43
2023-02-16T08:27:22.705Z,6.70
2023-02-16T08:30:12.895Z,5.90
2023-02-16T08:33:01.060Z,5.63
2023-02-16T08:35:46.660Z,5.23
2023-02-16T08:38:32.545Z,5.40
2023-02-16T08:41:19.995Z,5.77
2023-02-16T08:44:07.080Z,5.33
2023-02-16T08:46:56.008Z,5.13
2023-02-16T08:49:41.786Z,5.47
2023-02-16T08:52:27.296Z,5.43
2023-02-16T08:55:13.982Z,4.40
2023-02-16T08:58:00.750Z,4.30
2023-02-16T09:00:46.152Z,4.53
2023-02-16T09:03:32.646Z,4.53
2023-02-16T09:06:22.518Z,4.30
2023-02-16T09:09:08.984Z,3.90
2023-02-16T09:11:54.537Z,3.53
2023-02-16T09:14:40.355Z,3.97
2023-02-16T09:17:27.003Z,3.50
2023-02-16T09:20:12.781Z,3.77
2023-02-16T09:22:58.815Z,3.47
2023-02-16T09:25:44.322Z,3.70
2023-02-16T09:28:30.813Z,3.50
2023-02-16T09:31:29.087Z,3.60
2023-02-16T09:34:23.176Z,3.33
2023-02-16T09:37:08.538Z,3.53
2023-02-16T09:39:54.010Z,3.27
2023-02-16T09:42:45.538Z,2.90
2023-02-16T09:45:35.279Z,3.67
2023-02-16T09:48:35.725Z,3.60
2023-02-16T09:51:29.441Z,3.60
2023-02-16T09:54:31.139Z,3.30
2023-02-16T09:57:33.082Z,3.30
2023-02-16T10:00:29.986Z,2.90
2023-02-16T10:03:28.939Z,2.63
2023-02-16T10:06:14.231Z,3.03
2023-02-16T10:09:12.746Z,2.43
2023-02-16T10:12:07.672Z,2.40
2023-02-16T10:15:09.459Z,2.70
2023-02-16T10:18:15.308Z,3.90
2023-02-16T10:21:05.278Z,2.50
2023-02-16T10:24:02.119Z,2.63
2023-02-16T10:26:53.333Z,4.20
2023-02-16T10:29:38.767Z,3.10
2023-02-16T10:32:33.974Z,2.58
2023-02-16T10:35:28.049Z,2.78
2023-02-16T10:38:32.022Z,2.90
2023-02-16T10:41:31.436Z,2.30
2023-02-16T10:44:24.129Z,2.55
2023-02-16T10:47:35.236Z,2.58
2023-02-16T10:50:23.838Z,3.28
2023-02-16T10:53:15.803Z,2.78
2023-02-16T10:56:01.448Z,2.90
2023-02-16T10:58:47.696Z,3.72
2023-02-16T11:01:39.579Z,2.90
2023-02-16T11:04:43.318Z,3.70
2023-02-16T11:07:31.350Z,3.42
2023-02-16T11:10:30.879Z,3.58
2023-02-16T11:13:28.505Z,3.17
2023-02-16T11:16:21.474Z,3.35
2023-02-16T11:19:18.247Z,3.10
2023-02-16T11:22:03.846Z,3.92
2023-02-16T11:24:49.355Z,3.50
2023-02-16T11:27:35.048Z,4.05
2023-02-16T11:30:39.732Z,4.03
2023-02-16T11:33:27.676Z,3.78
2023-02-16T11:36:35.397Z,3.63
2023-02-16T11:39:24.140Z,4.10
2023-02-16T11:42:27.629Z,4.05
2023-02-16T11:45:34.614Z,3.70
2023-02-16T11:48:28.581Z,4.20
2023-02-16T11:51:16.254Z,4.28
2023-02-16T11:54:18.765Z,5.13
2023-02-16T11:57:06.749Z,5.00
2023-02-16T11:59:52.881Z,5.05
2023-02-16T12:03:00.330Z,5.03
2023-02-16T12:06:15.289Z,5.15
2023-02-16T12:09:32.751Z,5.22
2023-02-16T12:12:31.033Z,5.45
2023-02-16T12:15:36.616Z,5.80
2023-02-16T12:18:46.399Z,5.38
2023-02-16T12:21:34.886Z,4.70
2023-02-16T12:24:57.647Z,4.55
2023-02-16T12:27:48.081Z,4.97
2023-02-16T12:30:55.488Z,4.93
2023-02-16T12:33:58.224Z,4.63
2023-02-16T12:36:52.197Z,4.60
2023-02-16T12:39:37.611Z,4.40
2023-02-16T12:42:41.262Z,4.60
2023-02-16T12:45:31.633Z,4.05
2023-02-16T12:48:40.133Z,4.63
2023-02-16T12:51:39.109Z,4.72
2023-02-16T12:54:40.703Z,4.53
2023-02-16T12:57:30.812Z,4.30
2023-02-16T13:00:27.018Z,5.38
2023-02-16T13:03:42.329Z,4.60
2023-02-16T13:06:37.528Z,5.00
2023-02-16T13:09:44.513Z,4.18
2023-02-16T13:12:39.509Z,4.57
2023-02-16T13:15:37.092Z,4.18
2023-02-16T13:18:26.836Z,4.53
2023-02-16T13:21:28.511Z,4.97
2023-02-16T13:24:19.816Z,5.10
2023-02-16T13:27:26.861Z,4.75
2023-02-16T13:30:37.144Z,4.65
2023-02-16T13:33:51.515Z,5.00
2023-02-16T13:36:47.528Z,4.35
2023-02-16T13:40:10.739Z,4.70
2023-02-16T13:43:14.893Z,4.93
2023-02-16T13:46:07.607Z,5.18
2023-02-16T13:48:54.072Z,4.88
2023-02-16T13:51:46.310Z,4.80
2023-02-16T13:54:34.601Z,5.38
2023-02-16T13:57:52.109Z,5.03
2023-02-16T14:00:38.268Z,4.95
2023-02-16T14:03:23.489Z,5.25
2023-02-16T14:06:28.005Z,5.03
2023-02-16T14:09:16.146Z,4.45
2023-02-16T14:12:04.401Z,5.50
2023-02-16T14:14:52.996Z,5.10
2023-02-16T14:17:38.366Z,4.70
2023-02-16T14:20:23.929Z,4.50
2023-02-16T14:23:34.350Z,4.65
2023-02-16T14:26:19.660Z,5.10
2023-02-16T14:29:10.338Z,5.05
2023-02-16T14:32:21.723Z,5.13
2023-02-16T14:35:15.885Z,5.32
2023-02-16T14:38:33.377Z,5.30
2023-02-16T14:41:33.250Z,5.45
2023-02-16T14:44:38.502Z,5.75
2023-02-16T14:47:52.755Z,5.65
2023-02-16T14:50:48.048Z,5.35
2023-02-16T14:54:15.047Z,6.30
2023-02-16T14:57:36.480Z,6.28
2023-02-16T15:00:30.487Z,6.80
2023-02-16T15:03:22.261Z,7.13
2023-02-16T15:06:35.601Z,6.75
2023-02-16T15:09:31.061Z,6.30
2023-02-16T15:12:22.516Z,7.15
2023-02-16T15:15:13.457Z,6.53
2023-02-16T15:17:58.788Z,7.70
2023-02-16T15:20:46.977Z,7.53
2023-02-16T15:23:36.104Z,7.20
2023-02-16T15:26:26.828Z,7.15
2023-02-16T15:29:26.991Z,7.30
2023-02-16T15:32:16.543Z,7.82
2023-02-16T15:35:13.628Z,6.95
2023-02-16T15:38:01.311Z,7.40
2023-02-16T15:40:46.902Z,7.32
2023-02-16T15:43:35.714Z,7.50
2023-02-16T15:46:34.200Z,7.10
2023-02-16T15:49:29.785Z,7.53
2023-02-16T15:52:21.684Z,7.28
2023-02-16T15:55:10.021Z,8.43
2023-02-16T15:57:57.267Z,9.20
2023-02-16T16:00:45.066Z,8.60
2023-02-16T16:03:30.687Z,7.65
2023-02-16T16:06:16.259Z,8.60
2023-02-16T16:09:06.057Z,8.57
2023-02-16T16:11:55.094Z,8.85
2023-02-16T16:14:46.631Z,8.60
2023-02-16T16:17:37.301Z,9.52
2023-02-16T16:20:28.846Z,9.40
2023-02-16T16:23:16.896Z,8.55
2023-02-16T16:26:02.793Z,9.90
2023-02-16T16:28:48.441Z,9.93
2023-02-16T16:31:39.679Z,10.25
2023-02-16T16:34:37.817Z,9.02
2023-02-16T16:37:31.518Z,10.32
2023-02-16T16:40:20.410Z,10.23
2023-02-16T16:43:14.708Z,10.90
2023-02-16T16:46:25.931Z,10.18
2023-02-16T16:49:15.996Z,10.65
2023-02-16T16:52:01.506Z,10.05
2023-02-16T16:54:49.467Z,10.45
2023-02-16T16:57:35.075Z,10.43
2023-02-16T17:00:22.381Z,10.25
2023-02-16T17:03:09.178Z,10.95
2023-02-16T17:05:54.714Z,10.32
2023-02-16T17:08:44.156Z,10.32
2023-02-16T17:11:33.807Z,10.77
2023-02-16T17:14:20.913Z,10.38
2023-02-16T17:17:08.892Z,10.43
2023-02-16T17:19:54.473Z,11.35
2023-02-16T17:22:40.318Z,11.98
2023-02-16T17:25:25.421Z,11.18
2023-02-16T17:28:12.596Z,11.30
2023-02-16T17:30:58.041Z,10.85
2023-02-16T17:33:44.831Z,11.75
2023-02-16T17:36:30.192Z,11.63
2023-02-16T17:39:15.362Z,10.90
2023-02-16T17:42:01.513Z,11.75
2023-02-16T17:44:47.080Z,10.65
2023-02-16T17:47:32.709Z,10.50
2023-02-16T17:50:19.084Z,10.20
2023-02-16T17:53:09.449Z,10.50
2023-02-16T17:55:57.483Z,10.73
2023-02-16T17:58:43.288Z,10.60
2023-02-16T18:01:29.195Z,11.20
2023-02-16T18:04:14.762Z,11.27
2023-02-16T18:07:00.279Z,12.10
2023-02-16T18:09:46.332Z,12.27
2023-02-16T18:12:31.894Z,11.68
2023-02-16T18:15:17.525Z,12.23
2023-02-16T18:18:03.324Z,10.82
2023-02-16T18:20:48.813Z,12.13
2023-02-16T18:23:34.315Z,10.88
2023-02-16T18:26:19.812Z,10.93
2023-02-16T18:29:05.982Z,10.93
2023-02-16T18:31:51.330Z,11.48
2023-02-16T18:34:37.589Z,10.73
2023-02-16T18:37:22.839Z,11.00
2023-02-16T18:40:10.780Z,10.23
2023-02-16T18:42:56.926Z,11.43
2023-02-16T18:45:42.711Z,10.85
2023-02-16T18:48:27.965Z,12.02
2023-02-16T18:51:13.683Z,10.48
2023-02-16T18:53:59.353Z,11.50
2023-02-16T18:56:44.884Z,10.70
2023-02-16T18:59:30.094Z,10.32
2023-02-16T19:02:16.186Z,10.55
2023-02-16T19:05:01.908Z,10.75
2023-02-16T19:07:47.224Z,11.70
2023-02-16T19:10:33.353Z,12.23
2023-02-16T19:13:18.674Z,11.70
2023-02-16T19:16:04.783Z,11.55
2023-02-16T19:18:50.527Z,10.85
2023-02-16T19:21:36.065Z,11.73
2023-02-16T19:24:21.775Z,11.32
2023-02-16T19:27:07.187Z,12.00
2023-02-16T19:29:52.783Z,11.57
2023-02-16T19:32:40.934Z,11.52
2023-02-16T19:35:26.178Z,12.38
2023-02-16T19:38:11.626Z,11.45
2023-02-16T19:40:57.639Z,12.10
2023-02-16T19:43:43.962Z,11.43
2023-02-16T19:46:30.271Z,12.45
2023-02-16T19:49:17.116Z,12.98
2023-02-16T19:52:04.290Z,13.00
2023-02-16T19:54:50.027Z,12.05
2023-02-16T19:57:35.596Z,13.48
2023-02-16T20:00:21.204Z,12.48
2023-02-16T20:03:06.912Z,11.85
2023-02-16T20:05:52.165Z,12.85
2023-02-16T20:08:37.453Z,12.27
2023-02-16T20:11:25.551Z,12.93
2023-02-16T20:14:11.670Z,11.52
2023-02-16T20:16:57.236Z,13.10
2023-02-16T20:19:42.834Z,12.55
2023-02-16T20:22:28.724Z,12.65
2023-02-16T20:25:14.995Z,13.02
2023-02-16T20:28:00.504Z,12.98
2023-02-16T20:30:46.410Z,11.77
2023-02-16T20:33:31.813Z,11.07
2023-02-16T20:36:17.417Z,10.98
2023-02-16T20:39:05.695Z,10.77
2023-02-16T20:41:51.143Z,9.48
2023-02-16T20:44:36.710Z,9.73
2023-02-16T20:47:22.233Z,8.90
2023-02-16T20:50:07.993Z,8.88
2023-02-16T20:52:53.358Z,9.45
2023-02-16T20:55:38.929Z,8.77
2023-02-16T20:58:24.405Z,8.52
2023-02-16T21:01:14.568Z,8.57
2023-02-16T21:04:00.633Z,9.27
2023-02-16T21:06:46.353Z,9.60
2023-02-16T21:09:31.778Z,10.07
2023-02-16T21:12:17.354Z,10.30
2023-02-16T21:15:03.053Z,11.43
2023-02-16T21:17:48.544Z,10.90
2023-02-16T21:20:34.083Z,9.88
2023-02-16T21:23:19.740Z,11.35
2023-02-16T21:26:06.394Z,10.63
2023-02-16T21:28:52.610Z,10.02
2023-02-16T21:31:38.034Z,10.75
2023-02-16T21:34:23.673Z,10.20
2023-02-16T21:37:09.198Z,9.57
2023-02-16T21:40:13.032Z,9.18
2023-02-16T21:42:58.712Z,9.52
2023-02-16T21:45:44.455Z,10.40
2023-02-16T21:48:48.418Z,10.73
2023-02-16T21:51:36.595Z,10.63
2023-02-16T21:54:41.822Z,10.32
2023-02-16T22:00:15.942Z,9.70
2023-02-16T22:03:01.957Z,11.18
2023-02-16T22:05:47.501Z,10.07
2023-02-16T22:08:36.873Z,9.87
2023-02-16T22:11:22.566Z,9.52
2023-02-16T22:14:07.951Z,9.70
2023-02-16T22:16:53.555Z,9.87
2023-02-16T22:19:38.943Z,8.60
2023-02-16T22:22:24.504Z,9.63
2023-02-16T22:25:11.616Z,8.33
2023-02-16T22:27:56.942Z,9.87
2023-02-16T22:30:44.517Z,9.83
2023-02-16T22:33:30.863Z,9.03
2023-02-16T22:36:16.840Z,8.60
2023-02-16T22:39:02.576Z,7.43
2023-02-16T22:41:51.662Z,6.90
2023-02-16T22:44:37.352Z,6.50
2023-02-16T22:47:22.676Z,6.67
2023-02-16T22:50:08.267Z,5.50
2023-02-16T22:52:53.976Z,5.93
2023-02-16T22:55:41.527Z,6.53
2023-02-16T22:58:26.973Z,6.80
2023-02-16T23:01:19.053Z,5.90
2023-02-16T23:04:04.620Z,5.53
2023-02-16T23:06:50.016Z,5.70
2023-02-16T23:09:35.678Z,5.87
2023-02-16T23:12:21.184Z,5.63
2023-02-16T23:15:06.987Z,5.97
2023-02-16T23:17:52.364Z,5.93
2023-02-16T23:20:37.992Z,5.50
2023-02-16T23:23:23.275Z,6.17
2023-02-16T23:26:09.465Z,5.80
2023-02-16T23:28:56.627Z,5.73
2023-02-16T23:31:44.229Z,5.90
2023-02-16T23:34:29.695Z,5.60
2023-02-16T23:37:14.826Z,6.07
2023-02-16T23:40:00.525Z,5.63
2023-02-16T23:42:45.682Z,6.00
2023-02-16T23:45:30.971Z,5.63
2023-02-16T23:48:16.610Z,6.33
2023-02-16T23:51:02.000Z,5.63
2023-02-16T23:53:47.684Z,6.03
2023-02-16T23:56:33.134Z,6.10
2023-02-16T23:59:18.689Z,5.37
